Time;durP1;ratioP1;P1;durP2;ratioP2;P2;SDS_P1;SDS_P2;PMS_P1;PMS_P2;Temp;Humidity;BMP_temperature;BMP_pressure;BME280_temperature;BME280_humidity;BME280_pressure;Samples;Min_cycle;Max_cycle;Signal;HPM_P1;HPM_P2
2023/03/18 00:00:09;;;;;;;42.65;25.83;;;4.10;99.90;;;;;;4973319;28;20070;-75
2023/03/18 00:02:39;;;;;;;40.28;22.88;;;4.10;99.90;;;;;;4973564;28;20088;-75
2023/03/18 00:05:07;;;;;;;38.58;23.25;;;4.10;99.90;;;;;;4961095;28;20057;-75
2023/03/18 00:07:35;;;;;;;39.35;22.88;;;4.10;99.90;;;;;;4973478;28;20428;-74
2023/03/18 00:10:01;;;;;;;49.25;29.40;;;4.00;99.90;;;;;;4973700;28;20030;-75
2023/03/18 00:12:27;;;;;;;35.10;21.05;;;4.00;99.90;;;;;;4973287;28;20027;-75
2023/03/18 00:14:53;;;;;;;54.50;33.38;;;4.00;99.90;;;;;;4972923;28;20415;-76
2023/03/18 00:17:19;;;;;;;42.13;27.23;;;3.90;99.90;;;;;;4973339;28;20031;-75
2023/03/18 00:19:45;;;;;;;41.25;23.60;;;4.00;99.90;;;;;;4973063;28;20034;-75
2023/03/18 00:22:10;;;;;;;38.10;23.13;;;4.00;99.90;;;;;;4973599;28;20033;-76
2023/03/18 00:24:36;;;;;;;39.70;24.20;;;4.00;99.90;;;;;;4971239;28;20398;-76
2023/03/18 00:27:03;;;;;;;48.03;28.38;;;3.90;99.90;;;;;;4973444;28;20045;-76
2023/03/18 00:29:29;;;;;;;45.03;25.38;;;3.90;99.90;;;;;;4973122;28;20038;-74
2023/03/18 00:31:57;;;;;;;72.25;43.08;;;3.90;99.90;;;;;;4960859;28;20027;-76
2023/03/18 00:34:23;;;;;;;68.43;41.67;;;3.80;99.90;;;;;;4971855;28;20487;-75
2023/03/18 00:36:55;;;;;;;56.30;29.45;;;3.70;99.90;;;;;;4972692;28;20062;-75
2023/03/18 00:39:25;;;;;;;64.40;37.28;;;3.60;99.90;;;;;;4973355;28;20023;-75
2023/03/18 00:41:55;;;;;;;60.95;32.97;;;3.60;99.90;;;;;;4972024;28;20093;-75
2023/03/18 00:44:21;;;;;;;41.67;26.38;;;3.60;99.90;;;;;;4967862;28;20054;-76
2023/03/18 00:46:47;;;;;;;47.83;28.75;;;3.60;99.90;;;;;;4948020;28;20041;-76
2023/03/18 00:49:15;;;;;;;44.70;25.17;;;3.60;99.90;;;;;;4975879;28;20027;-77
2023/03/18 00:51:41;;;;;;;58.08;35.33;;;3.60;99.90;;;;;;4958715;28;20394;-76
2023/03/18 00:54:11;;;;;;;62.42;35.53;;;3.50;99.90;;;;;;4972624;28;20039;-74
2023/03/18 00:56:37;;;;;;;44.47;28.02;;;3.50;99.90;;;;;;4975707;28;20035;-74
2023/03/18 00:59:05;;;;;;;42.60;26.05;;;3.50;99.90;;;;;;4957352;28;20035;-75
2023/03/18 01:01:32;;;;;;;41.78;24.83;;;3.40;99.90;;;;;;4967060;28;20035;-75
2023/03/18 01:03:59;;;;;;;44.92;25.60;;;3.40;99.90;;;;;;4957915;28;20042;-75
2023/03/18 01:06:30;;;;;;;41.33;26.15;;;3.30;99.90;;;;;;4943313;28;20065;-75
2023/03/18 01:08:57;;;;;;;42.45;24.33;;;3.30;99.90;;;;;;4959094;28;20038;-76
2023/03/18 01:11:24;;;;;;;36.42;21.55;;;3.40;99.90;;;;;;4971929;28;20072;-76
2023/03/18 01:13:50;;;;;;;38.30;22.30;;;3.40;99.90;;;;;;4976445;28;20117;-76
2023/03/18 01:16:16;;;;;;;42.70;21.80;;;3.30;99.90;;;;;;4958503;28;20438;-77
2023/03/18 01:18:43;;;;;;;42.85;25.95;;;3.30;99.90;;;;;;4959042;28;20079;-76
2023/03/18 01:21:09;;;;;;;39.10;24.13;;;3.20;99.90;;;;;;4976489;28;20050;-74
2023/03/18 01:23:41;;;;;;;42.83;24.95;;;3.20;99.90;;;;;;4959253;28;20031;-75
2023/03/18 01:26:08;;;;;;;39.95;23.90;;;3.20;99.90;;;;;;4970114;28;20061;-76
2023/03/18 01:28:36;;;;;;;40.67;24.85;;;3.20;99.90;;;;;;4975690;28;20061;-75
2023/03/18 01:31:03;;;;;;;45.85;26.00;;;3.20;99.90;;;;;;4975098;28;20039;-76
2023/03/18 01:33:29;;;;;;;44.42;24.25;;;3.10;99.90;;;;;;4975095;28;20088;-74
2023/03/18 01:35:58;;;;;;;39.85;22.42;;;3.10;99.90;;;;;;4991786;28;20109;-76
2023/03/18 01:38:31;;;;;;;37.85;21.13;;;3.10;99.90;;;;;;4974617;28;20073;-74
2023/03/18 01:41:06;;;;;;;37.67;21.65;;;3.10;99.90;;;;;;4976023;28;20042;-75
2023/03/18 01:43:35;;;;;;;34.78;20.52;;;3.00;99.90;;;;;;4959679;28;20038;-75
2023/03/18 01:46:45;;;;;;;36.75;22.52;;;3.00;99.90;;;;;;4975641;28;20115;-73
2023/03/18 01:49:21;;;;;;;37.72;22.27;;;3.00;99.90;;;;;;4955824;28;20030;-75
2023/03/18 01:52:11;;;;;;;45.88;23.10;;;3.00;99.90;;;;;;4957811;28;20026;-74
2023/03/18 01:55:15;;;;;;;39.67;21.70;;;2.90;99.90;;;;;;4952984;28;20035;-74
2023/03/18 01:57:42;;;;;;;42.80;22.35;;;2.90;99.90;;;;;;4932517;29;20499;-75
2023/03/18 02:00:10;;;;;;;41.47;22.73;;;2.90;99.90;;;;;;4916725;29;20151;-74
2023/03/18 02:02:45;;;;;;;40.17;20.98;;;2.90;99.90;;;;;;4933037;29;20498;-75
2023/03/18 02:05:20;;;;;;;41.45;22.67;;;2.80;99.90;;;;;;4916380;29;20024;-78
2023/03/18 02:07:46;;;;;;;40.35;25.20;;;2.80;99.90;;;;;;4916946;29;20546;-77
2023/03/18 02:10:23;;;;;;;36.70;22.48;;;2.70;99.90;;;;;;4917331;29;20549;-76
2023/03/18 02:12:55;;;;;;;41.35;23.08;;;2.70;99.90;;;;;;4914754;29;20035;-75
2023/03/18 02:15:29;;;;;;;39.47;22.48;;;2.70;99.90;;;;;;4918933;29;20515;-76
2023/03/18 02:18:19;;;;;;;39.88;22.65;;;2.70;99.90;;;;;;4924718;29;20478;-76
2023/03/18 02:20:57;;;;;;;40.90;24.45;;;2.70;99.90;;;;;;4931118;28;20038;-73
2023/03/18 02:23:41;;;;;;;35.72;22.85;;;2.70;99.90;;;;;;4932954;29;20489;-77
2023/03/18 02:26:43;;;;;;;38.50;22.73;;;2.70;99.90;;;;;;4916316;29;20027;-77
2023/03/18 02:29:13;;;;;;;42.15;25.90;;;2.60;99.90;;;;;;4899740;29;20024;-77
2023/03/18 02:31:48;;;;;;;46.58;25.88;;;2.60;99.90;;;;;;4916946;29;20031;-77
2023/03/18 02:34:23;;;;;;;45.22;24.75;;;2.60;99.90;;;;;;4948570;28;20031;-78
2023/03/18 02:36:51;;;;;;;43.08;24.05;;;2.60;99.90;;;;;;4954092;28;20026;-77
2023/03/18 02:39:17;;;;;;;41.00;24.15;;;2.60;99.90;;;;;;4972068;28;20018;-77
2023/03/18 02:41:43;;;;;;;45.30;25.10;;;2.60;99.90;;;;;;4954865;28;20494;-77
2023/03/18 02:44:11;;;;;;;43.17;24.63;;;2.60;99.90;;;;;;4952181;28;20101;-78
2023/03/18 02:46:59;;;;;;;42.38;23.40;;;2.50;99.90;;;;;;4941316;28;20791;-78
2023/03/18 02:49:26;;;;;;;40.08;24.35;;;2.40;99.90;;;;;;4937505;28;20989;-76
2023/03/18 02:51:53;;;;;;;44.85;26.73;;;2.30;99.90;;;;;;4936621;29;20015;-77
2023/03/18 02:54:26;;;;;;;44.72;25.20;;;2.30;99.90;;;;;;4936728;29;20027;-77
2023/03/18 02:56:52;;;;;;;46.80;26.45;;;2.30;99.90;;;;;;4954413;29;20030;-77
2023/03/18 02:59:19;;;;;;;49.10;28.65;;;2.30;99.90;;;;;;4936827;29;20039;-77
2023/03/18 03:01:48;;;;;;;47.38;30.25;;;2.20;99.90;;;;;;4936504;28;20455;-78
2023/03/18 03:04:15;;;;;;;46.53;27.23;;;2.20;99.90;;;;;;4937290;28;20031;-78
2023/03/18 03:06:41;;;;;;;44.97;27.35;;;2.10;99.90;;;;;;4937064;28;20023;-76
2023/03/18 03:09:10;;;;;;;41.25;26.73;;;2.10;99.90;;;;;;4952814;28;20505;-76
2023/03/18 03:11:36;;;;;;;45.88;26.80;;;2.10;99.90;;;;;;4936913;28;20036;-77
2023/03/18 03:14:10;;;;;;;44.63;25.85;;;2.10;99.90;;;;;;4957984;28;20101;-77
2023/03/18 03:16:37;;;;;;;45.38;26.25;;;2.10;99.90;;;;;;4956046;28;20435;-78
2023/03/18 03:19:05;;;;;;;46.63;26.42;;;2.00;99.90;;;;;;4955914;28;20034;-78
2023/03/18 03:21:34;;;;;;;43.95;29.17;;;2.00;99.90;;;;;;4956333;28;20034;-78
2023/03/18 03:24:04;;;;;;;50.13;28.70;;;1.90;99.90;;;;;;4955953;28;20019;-76
2023/03/18 03:26:30;;;;;;;42.63;27.08;;;1.90;99.90;;;;;;4940466;28;20045;-78
2023/03/18 03:28:57;;;;;;;45.35;26.52;;;1.90;99.90;;;;;;4955733;28;20031;-78
2023/03/18 03:31:23;;;;;;;42.30;26.23;;;2.00;99.90;;;;;;4973646;28;20386;-74
2023/03/18 03:33:49;;;;;;;43.65;25.83;;;1.90;99.90;;;;;;4983148;28;20133;-78
2023/03/18 03:36:16;;;;;;;42.28;25.10;;;1.80;99.90;;;;;;4987576;28;20113;-76
2023/03/18 03:38:42;;;;;;;38.38;22.55;;;1.80;99.90;;;;;;4973176;28;20046;-76
2023/03/18 03:41:10;;;;;;;41.85;24.20;;;1.90;99.90;;;;;;4974027;28;20374;-76
2023/03/18 03:43:38;;;;;;;38.17;23.63;;;1.90;99.90;;;;;;4955737;28;20402;-77
2023/03/18 03:46:05;;;;;;;39.25;23.65;;;1.90;99.90;;;;;;4968126;28;20118;-78
2023/03/18 03:48:31;;;;;;;39.85;23.70;;;2.00;99.90;;;;;;4963422;28;20113;-75
2023/03/18 03:50:57;;;;;;;43.35;24.05;;;2.00;99.90;;;;;;4942744;28;20438;-77
2023/03/18 03:53:24;;;;;;;43.42;24.42;;;2.00;99.90;;;;;;4970922;28;20092;-78
2023/03/18 03:55:51;;;;;;;37.45;23.58;;;2.00;99.90;;;;;;4963872;28;20027;-78
2023/03/18 03:58:17;;;;;;;40.13;23.85;;;2.00;99.90;;;;;;4973533;28;20026;-78
2023/03/18 04:00:45;;;;;;;36.78;23.60;;;2.10;99.90;;;;;;4964516;28;20038;-78
2023/03/18 04:03:11;;;;;;;39.90;23.48;;;2.10;99.90;;;;;;4969948;28;20022;-78
2023/03/18 04:05:36;;;;;;;40.92;25.00;;;2.10;99.90;;;;;;4972414;28;20030;-78
2023/03/18 04:08:04;;;;;;;39.35;25.15;;;2.10;99.90;;;;;;4971962;28;20117;-76
2023/03/18 04:10:35;;;;;;;41.08;25.55;;;2.00;99.90;;;;;;4941113;28;20041;-78
2023/03/18 04:13:04;;;;;;;40.97;25.70;;;2.00;99.90;;;;;;4956046;28;20038;-78
2023/03/18 04:15:30;;;;;;;40.78;25.15;;;2.10;99.90;;;;;;4973097;28;20062;-78
2023/03/18 04:18:03;;;;;;;41.45;25.15;;;2.10;99.90;;;;;;4956141;28;20034;-78
2023/03/18 04:20:29;;;;;;;46.83;24.73;;;2.10;99.90;;;;;;4955767;28;20061;-78
2023/03/18 04:22:57;;;;;;;39.22;25.92;;;2.10;99.90;;;;;;4955764;28;20079;-78
2023/03/18 04:25:23;;;;;;;42.88;24.52;;;2.00;99.90;;;;;;4938014;28;20291;-78
2023/03/18 04:27:51;;;;;;;37.75;24.15;;;2.10;99.90;;;;;;4956051;28;20019;-78
2023/03/18 04:30:19;;;;;;;43.55;24.77;;;2.10;99.90;;;;;;4955718;28;20038;-77
2023/03/18 04:33:02;;;;;;;42.65;25.17;;;2.10;99.90;;;;;;4979545;28;20473;-76
2023/03/18 04:35:29;;;;;;;47.63;25.55;;;2.10;99.90;;;;;;4957372;28;20027;-77
2023/03/18 04:37:56;;;;;;;59.63;29.33;;;2.00;99.90;;;;;;4955730;28;20049;-78
2023/03/18 04:40:23;;;;;;;56.67;27.60;;;2.00;99.90;;;;;;4971907;28;20027;-78
2023/03/18 04:42:49;;;;;;;49.28;27.23;;;2.00;99.90;;;;;;4955607;28;20458;-79
2023/03/18 04:45:21;;;;;;;48.83;27.02;;;1.90;99.90;;;;;;4954744;28;20031;-78
2023/03/18 04:47:48;;;;;;;51.10;26.25;;;1.90;99.90;;;;;;4956747;28;20038;-77
2023/03/18 04:50:14;;;;;;;51.67;27.33;;;1.90;99.90;;;;;;4956776;28;20051;-77
2023/03/18 04:52:42;;;;;;;44.05;25.77;;;1.90;99.90;;;;;;4962764;28;20042;-78
2023/03/18 04:55:12;;;;;;;52.90;29.48;;;1.90;99.90;;;;;;4971338;28;20066;-78
2023/03/18 04:57:41;;;;;;;62.47;31.75;;;2.00;99.90;;;;;;4988125;28;20035;-77
2023/03/18 05:00:11;;;;;;;58.42;33.25;;;1.90;99.90;;;;;;4964439;28;20049;-77
2023/03/18 05:02:39;;;;;;;48.05;29.10;;;2.00;99.90;;;;;;4955680;28;20118;-78
2023/03/18 05:05:07;;;;;;;58.28;32.67;;;1.90;99.90;;;;;;4955557;28;20034;-78
2023/03/18 05:07:38;;;;;;;53.58;32.65;;;2.40;99.90;;;;;;4955730;28;20030;-76
2023/03/18 05:10:10;;;;;;;54.55;34.53;;;2.70;99.90;;;;;;4971928;28;20525;-80
2023/03/18 05:12:37;;;;;;;73.50;43.13;;;3.30;99.90;;;;;;4970722;28;20101;-77
2023/03/18 05:15:05;;;;;;;71.35;39.70;;;3.80;99.90;;;;;;4961283;28;20078;-78
2023/03/18 05:17:32;;;;;;;101.72;49.25;;;4.30;99.90;;;;;;4958374;28;20452;-79
2023/03/18 05:20:03;;;;;;;83.95;47.25;;;4.70;99.90;;;;;;4962058;28;20089;-79
2023/03/18 05:22:29;;;;;;;73.28;43.03;;;5.20;99.90;;;;;;4970961;28;20034;-79
2023/03/18 05:25:04;;;;;;;79.13;44.45;;;5.60;99.90;;;;;;4969127;28;20501;-76
2023/03/18 05:27:31;;;;;;;77.80;43.58;;;6.30;99.90;;;;;;4963781;28;20386;-78
2023/03/18 05:30:02;;;;;;;107.22;68.13;;;7.20;98.50;;;;;;4955232;28;20027;-77
2023/03/18 05:32:38;;;;;;;55.22;36.22;;;7.90;96.10;;;;;;4964412;28;20037;-76
2023/03/18 05:35:06;;;;;;;69.05;37.50;;;8.30;93.90;;;;;;4940804;28;20387;-77
2023/03/18 05:37:42;;;;;;;57.42;35.17;;;8.60;93.40;;;;;;4953307;28;20035;-77
2023/03/18 05:40:10;;;;;;;53.78;34.88;;;8.90;91.90;;;;;;4956412;28;20023;-77
2023/03/18 05:42:39;;;;;;;54.97;36.58;;;9.00;91.60;;;;;;4956205;28;20062;-78
2023/03/18 05:45:06;;;;;;;49.35;34.70;;;9.00;92.20;;;;;;4959620;28;20037;-78
2023/03/18 05:47:35;;;;;;;51.33;33.63;;;9.30;90.70;;;;;;4946671;28;20047;-79
2023/03/18 05:50:09;;;;;;;51.80;34.13;;;9.20;90.20;;;;;;4955215;28;20506;-79
2023/03/18 05:52:37;;;;;;;39.75;29.15;;;8.50;91.60;;;;;;4974445;28;20094;-79
2023/03/18 05:55:06;;;;;;;53.97;40.20;;;8.60;91.50;;;;;;4958381;28;20031;-79
2023/03/18 05:57:37;;;;;;;43.95;32.35;;;8.50;91.30;;;;;;4975264;28;20043;-79
2023/03/18 06:00:07;;;;;;;44.75;30.95;;;7.90;91.30;;;;;;4974509;28;20031;-78
2023/03/18 06:02:45;;;;;;;42.53;29.75;;;7.40;91.90;;;;;;4969028;28;20047;-79
2023/03/18 06:05:14;;;;;;;60.50;32.13;;;6.80;92.90;;;;;;4957569;28;20031;-78
2023/03/18 06:07:40;;;;;;;43.38;29.58;;;5.80;94.10;;;;;;4960954;28;20039;-77
2023/03/18 06:10:07;;;;;;;48.22;28.85;;;5.50;95.20;;;;;;4963055;28;20027;-78
2023/03/18 06:12:33;;;;;;;46.55;30.50;;;5.20;95.20;;;;;;4957594;28;20035;-78
2023/03/18 06:14:59;;;;;;;47.38;30.83;;;5.10;96.00;;;;;;4952038;28;20054;-78
2023/03/18 06:17:26;;;;;;;45.92;32.35;;;4.80;96.50;;;;;;4951233;28;20436;-78
2023/03/18 06:19:53;;;;;;;54.83;32.88;;;4.80;98.30;;;;;;4973652;28;20034;-77
2023/03/18 06:22:19;;;;;;;55.05;34.10;;;4.60;99.30;;;;;;4971865;28;20026;-78
2023/03/18 06:24:45;;;;;;;51.28;32.92;;;4.60;99.90;;;;;;4957014;28;20038;-78
2023/03/18 06:27:11;;;;;;;50.40;33.30;;;4.40;99.90;;;;;;4972205;28;20377;-77
2023/03/18 06:29:40;;;;;;;56.67;33.80;;;4.30;99.90;;;;;;4964728;28;20070;-78
2023/03/18 06:32:10;;;;;;;50.97;32.10;;;4.40;99.90;;;;;;4957013;28;20482;-77
2023/03/18 06:34:38;;;;;;;52.55;32.78;;;4.40;99.90;;;;;;4954513;28;20070;-78
2023/03/18 06:37:05;;;;;;;50.67;31.88;;;4.20;99.90;;;;;;4950525;28;20565;-78
2023/03/18 06:39:33;;;;;;;49.92;31.33;;;4.30;99.90;;;;;;4952050;28;20031;-76
2023/03/18 06:42:03;;;;;;;50.03;31.02;;;4.50;99.90;;;;;;4987831;28;20756;-75
2023/03/18 06:44:41;;;;;;;43.10;30.17;;;4.50;99.90;;;;;;4972848;28;20077;-76
2023/03/18 06:47:17;;;;;;;47.92;30.20;;;4.60;99.90;;;;;;4972249;28;20486;-77
2023/03/18 06:49:51;;;;;;;52.05;30.00;;;4.90;99.90;;;;;;4984684;28;20113;-76
2023/03/18 06:52:22;;;;;;;48.25;31.33;;;5.20;99.90;;;;;;4970106;28;20057;-77
2023/03/18 06:54:50;;;;;;;49.05;32.03;;;4.90;99.90;;;;;;4972453;28;20030;-78
2023/03/18 06:57:17;;;;;;;53.10;33.40;;;5.10;99.90;;;;;;4974713;28;20045;-78
2023/03/18 06:59:44;;;;;;;49.42;32.42;;;5.40;99.90;;;;;;4991362;28;20429;-77
2023/03/18 07:02:11;;;;;;;49.05;33.08;;;5.60;99.90;;;;;;4957385;28;20110;-77
2023/03/18 07:04:38;;;;;;;47.03;30.85;;;5.90;99.90;;;;;;4979388;28;20641;-79
2023/03/18 07:07:04;;;;;;;48.05;32.15;;;6.20;99.90;;;;;;4962235;28;20042;-78
2023/03/18 07:09:32;;;;;;;48.97;32.53;;;6.40;99.90;;;;;;4978567;28;20038;-78
2023/03/18 07:12:00;;;;;;;46.72;32.13;;;6.50;99.90;;;;;;4968423;28;20058;-78
2023/03/18 07:14:27;;;;;;;44.00;31.17;;;6.70;99.90;;;;;;4962679;28;20514;-78
2023/03/18 07:16:54;;;;;;;39.95;27.13;;;7.00;99.90;;;;;;4973680;28;20173;-78
2023/03/18 07:19:21;;;;;;;46.63;29.92;;;7.20;99.90;;;;;;4972735;28;20443;-78
2023/03/18 07:21:48;;;;;;;41.45;25.13;;;6.80;99.50;;;;;;4954906;28;20035;-76
2023/03/18 07:24:15;;;;;;;38.10;25.98;;;7.20;99.90;;;;;;4981046;28;20034;-77
2023/03/18 07:26:41;;;;;;;39.22;26.27;;;7.40;99.90;;;;;;4974188;28;20474;-77
2023/03/18 07:29:09;;;;;;;38.15;24.35;;;6.80;99.60;;;;;;4956074;28;20138;-78
2023/03/18 07:31:35;;;;;;;39.33;22.67;;;7.10;99.90;;;;;;4956155;28;20394;-77
2023/03/18 07:34:01;;;;;;;38.92;21.98;;;7.20;99.20;;;;;;4958767;28;20031;-77
2023/03/18 07:36:27;;;;;;;36.97;24.23;;;7.10;99.80;;;;;;4945821;29;20138;-77
2023/03/18 07:38:53;;;;;;;41.03;24.05;;;7.40;99.90;;;;;;4967366;28;20033;-77
2023/03/18 07:41:19;;;;;;;37.35;24.05;;;7.80;99.90;;;;;;4967206;28;20378;-77
2023/03/18 07:43:45;;;;;;;36.70;23.08;;;8.10;99.90;;;;;;4960956;28;20498;-76
2023/03/18 07:46:10;;;;;;;33.72;22.52;;;8.10;98.50;;;;;;4961614;28;20407;-78
2023/03/18 07:48:36;;;;;;;33.60;21.55;;;8.20;98.20;;;;;;4967272;28;20019;-78
2023/03/18 07:51:02;;;;;;;34.53;21.10;;;8.30;97.80;;;;;;4962681;28;20054;-77
2023/03/18 07:53:28;;;;;;;32.35;20.27;;;8.20;97.70;;;;;;4958714;28;20023;-79
2023/03/18 07:55:54;;;;;;;29.70;19.50;;;7.80;97.30;;;;;;4971347;28;20061;-77
2023/03/18 07:58:20;;;;;;;26.65;16.45;;;8.40;99.10;;;;;;4993027;28;20433;-77
2023/03/18 08:00:46;;;;;;;34.10;19.98;;;8.60;96.90;;;;;;4975727;28;20027;-78
2023/03/18 08:03:12;;;;;;;27.92;17.52;;;9.00;98.70;;;;;;4947688;28;20077;-77
2023/03/18 08:05:39;;;;;;;27.83;17.73;;;8.80;96.40;;;;;;4973293;28;20101;-77
2023/03/18 08:08:06;;;;;;;26.42;17.20;;;8.90;96.70;;;;;;4960618;28;20019;-79
2023/03/18 08:10:32;;;;;;;30.17;17.60;;;9.00;96.90;;;;;;4963077;28;20110;-76
2023/03/18 08:12:58;;;;;;;25.92;15.90;;;9.20;98.20;;;;;;4967220;28;20352;-78
2023/03/18 08:15:24;;;;;;;29.58;15.32;;;9.40;97.80;;;;;;4953400;28;20066;-76
2023/03/18 08:17:53;;;;;;;26.42;15.02;;;9.40;95.40;;;;;;4973548;28;20169;-77
2023/03/18 08:20:20;;;;;;;24.85;14.57;;;9.30;95.40;;;;;;4972068;28;20031;-75
2023/03/18 08:22:46;;;;;;;23.17;13.55;;;9.60;96.00;;;;;;4973938;28;20041;-74
2023/03/18 08:25:13;;;;;;;20.00;12.18;;;9.70;95.00;;;;;;4971976;28;20498;-79
2023/03/18 08:27:39;;;;;;;20.08;12.13;;;9.80;94.80;;;;;;4973486;28;20031;-76
2023/03/18 08:30:05;;;;;;;17.60;10.05;;;9.80;93.60;;;;;;4966433;28;20029;-79
2023/03/18 08:32:32;;;;;;;17.48;10.07;;;10.00;94.00;;;;;;4973104;28;20031;-75
2023/03/18 08:34:58;;;;;;;16.25;10.15;;;10.20;93.70;;;;;;4973469;28;20057;-78
2023/03/18 08:37:24;;;;;;;19.98;11.50;;;10.30;94.40;;;;;;4973004;28;20074;-78
2023/03/18 08:39:50;;;;;;;14.25;8.20;;;10.40;93.10;;;;;;4969586;28;20356;-78
2023/03/18 08:42:16;;;;;;;19.00;9.05;;;10.00;91.50;;;;;;4957949;28;20090;-77
2023/03/18 08:44:42;;;;;;;25.80;13.57;;;10.40;93.80;;;;;;4966861;28;20035;-76
2023/03/18 08:47:08;;;;;;;17.25;10.13;;;10.70;93.90;;;;;;4965640;28;20019;-76
2023/03/18 08:49:34;;;;;;;19.67;10.30;;;10.90;92.90;;;;;;4962233;28;20074;-77
2023/03/18 08:52:00;;;;;;;15.98;8.82;;;10.90;92.40;;;;;;4958763;28;20023;-77
2023/03/18 08:54:26;;;;;;;16.80;8.65;;;10.80;92.10;;;;;;4965413;28;20035;-76
2023/03/18 08:56:54;;;;;;;15.65;7.70;;;10.80;91.50;;;;;;4968013;28;20085;-76
2023/03/18 08:59:20;;;;;;;15.07;8.10;;;10.80;91.30;;;;;;4972578;28;20066;-76
2023/03/18 09:01:46;;;;;;;15.65;8.80;;;10.80;91.40;;;;;;4971575;28;20014;-77
2023/03/18 09:04:13;;;;;;;18.83;9.38;;;11.00;91.70;;;;;;4961555;28;20122;-74
2023/03/18 09:06:40;;;;;;;14.80;8.25;;;10.80;90.60;;;;;;4966352;28;20030;-76
2023/03/18 09:09:07;;;;;;;18.10;10.15;;;10.90;90.90;;;;;;4956694;29;20031;-76
2023/03/18 09:11:33;;;;;;;15.95;9.90;;;10.90;91.50;;;;;;4956996;29;20034;-76
2023/03/18 09:14:00;;;;;;;16.10;9.60;;;11.10;92.30;;;;;;4956379;28;20047;-74
2023/03/18 09:16:25;;;;;;;18.40;9.52;;;11.10;91.20;;;;;;4960126;28;20390;-75
2023/03/18 09:18:51;;;;;;;19.80;10.55;;;11.10;91.70;;;;;;4964120;28;20038;-75
2023/03/18 09:21:18;;;;;;;16.92;9.68;;;11.30;91.40;;;;;;4966477;28;20054;-77
2023/03/18 09:23:44;;;;;;;14.52;8.85;;;11.40;92.20;;;;;;4969799;28;20039;-77
2023/03/18 09:26:10;;;;;;;14.95;8.77;;;11.60;91.90;;;;;;4970820;28;20562;-78
2023/03/18 09:28:36;;;;;;;14.90;9.30;;;11.50;90.20;;;;;;4973505;28;20058;-77
2023/03/18 09:31:02;;;;;;;19.05;9.27;;;11.70;91.10;;;;;;4972096;28;20128;-75
2023/03/18 09:33:28;;;;;;;15.75;9.07;;;11.80;90.50;;;;;;4979600;28;20043;-78
2023/03/18 09:35:54;;;;;;;15.75;9.07;;;11.70;91.40;;;;;;4984961;28;20026;-74
2023/03/18 09:38:21;;;;;;;23.08;10.00;;;11.80;90.90;;;;;;4993034;28;20457;-78
2023/03/18 09:41:39;;;;;;;18.05;9.15;;;11.80;90.70;;;;;;4990947;28;20462;-77
2023/03/18 09:44:25;;;;;;;14.50;9.20;;;11.90;90.80;;;;;;4922275;29;20398;-78
2023/03/18 09:47:10;;;;;;;17.38;9.52;;;12.00;90.60;;;;;;4938012;29;20043;-78
2023/03/18 09:49:46;;;;;;;17.45;8.52;;;12.00;90.80;;;;;;4948582;29;20032;-77
2023/03/18 09:52:23;;;;;;;16.58;9.18;;;12.10;90.30;;;;;;4933404;29;20047;-76
2023/03/18 09:54:55;;;;;;;14.20;7.78;;;12.00;90.10;;;;;;4930085;29;20091;-77
2023/03/18 09:57:32;;;;;;;14.43;7.30;;;12.20;87.80;;;;;;4934742;29;20415;-77
2023/03/18 10:00:07;;;;;;;21.67;8.63;;;12.50;88.30;;;;;;4935194;29;20044;-77
2023/03/18 10:02:38;;;;;;;16.45;8.57;;;12.50;87.70;;;;;;4948622;29;20035;-78
2023/03/18 10:05:54;;;;;;;13.93;7.47;;;12.60;88.70;;;;;;4954510;29;20094;-77
2023/03/18 10:08:22;;;;;;;14.43;7.82;;;12.70;87.40;;;;;;4886748;29;20062;-78
2023/03/18 10:10:48;;;;;;;13.00;7.60;;;12.70;86.40;;;;;;4894513;29;20036;-78
2023/03/18 10:13:35;;;;;;;14.20;7.10;;;12.90;87.80;;;;;;4876742;29;20041;-78
2023/03/18 10:16:04;;;;;;;14.38;7.05;;;13.00;84.80;;;;;;4873585;29;20075;-76
2023/03/18 10:18:31;;;;;;;12.63;7.05;;;13.00;86.30;;;;;;4876223;29;20041;-77
2023/03/18 10:21:03;;;;;;;14.82;6.93;;;12.80;85.00;;;;;;4893991;29;20041;-78
2023/03/18 10:23:59;;;;;;;14.20;7.68;;;12.90;84.80;;;;;;4913657;29;20059;-76
2023/03/18 10:26:38;;;;;;;12.98;6.63;;;13.10;85.00;;;;;;4898427;29;20036;-76
2023/03/18 10:29:30;;;;;;;15.07;7.80;;;13.10;82.60;;;;;;4889489;29;20420;-78
2023/03/18 10:32:11;;;;;;;12.18;6.85;;;13.10;85.20;;;;;;4903704;29;20040;-75
2023/03/18 10:35:02;;;;;;;13.50;6.88;;;13.10;85.40;;;;;;4895513;29;20473;-78
2023/03/18 10:37:43;;;;;;;15.75;8.52;;;13.10;83.10;;;;;;4893867;29;20048;-78
2023/03/18 10:40:16;;;;;;;17.75;8.52;;;13.30;84.80;;;;;;4986480;28;20105;-76
2023/03/18 10:42:43;;;;;;;22.60;7.88;;;13.40;87.30;;;;;;4966466;28;20413;-73
2023/03/18 10:45:21;;;;;;;12.93;7.78;;;13.30;82.30;;;;;;4969344;28;20027;-78
2023/03/18 10:48:03;;;;;;;13.63;6.35;;;13.40;83.70;;;;;;4972842;28;20467;-78
2023/03/18 10:50:53;;;;;;;13.45;7.20;;;13.50;82.10;;;;;;4969781;28;20117;-74
2023/03/18 10:53:22;;;;;;;17.08;7.80;;;13.70;84.20;;;;;;4972549;28;20035;-77
2023/03/18 10:55:59;;;;;;;14.75;7.40;;;13.70;84.80;;;;;;4976067;28;20030;-75
2023/03/18 10:58:27;;;;;;;14.18;7.28;;;13.70;80.70;;;;;;4985536;28;20487;-74
2023/03/18 11:00:54;;;;;;;12.90;7.15;;;13.70;82.80;;;;;;4963392;28;20054;-77
2023/03/18 11:03:22;;;;;;;15.07;8.18;;;13.70;80.40;;;;;;4968340;28;20038;-76
2023/03/18 11:05:50;;;;;;;23.10;8.10;;;13.80;82.90;;;;;;4974252;28;20019;-77
2023/03/18 11:08:38;;;;;;;13.85;7.45;;;13.90;83.30;;;;;;4974576;28;20043;-78
2023/03/18 11:11:27;;;;;;;19.05;8.43;;;13.80;81.00;;;;;;4974756;28;20039;-74
2023/03/18 11:13:55;;;;;;;13.40;7.85;;;14.10;83.60;;;;;;4961807;28;20089;-77
2023/03/18 11:16:46;;;;;;;13.90;7.82;;;14.10;82.10;;;;;;4974157;28;20113;-77
2023/03/18 11:19:37;;;;;;;13.32;7.60;;;14.20;82.20;;;;;;4974496;28;20074;-77
2023/03/18 11:22:09;;;;;;;12.35;7.32;;;14.10;80.30;;;;;;4973656;28;20027;-77
2023/03/18 11:24:43;;;;;;;15.70;7.88;;;14.00;79.60;;;;;;4974184;28;20071;-77
2023/03/18 11:27:15;;;;;;;10.98;6.82;;;14.00;83.30;;;;;;4984233;28;20100;-77
2023/03/18 11:29:52;;;;;;;14.15;7.65;;;14.10;81.60;;;;;;4974071;28;20026;-76
2023/03/18 11:32:32;;;;;;;13.85;6.55;;;14.30;82.40;;;;;;4973719;28;20022;-77
2023/03/18 11:35:01;;;;;;;15.98;8.57;;;14.30;81.80;;;;;;4974270;28;20031;-77
2023/03/18 11:37:33;;;;;;;17.92;7.53;;;14.30;81.50;;;;;;4973783;28;20042;-75
2023/03/18 11:40:06;;;;;;;;;;;14.30;81.10;;;;;;4974486;28;20086;-73
2023/03/18 11:42:32;;;;;;;13.05;6.50;;;14.30;81.50;;;;;;4974259;28;19964;-77
2023/03/18 11:45:01;;;;;;;13.02;5.90;;;14.30;81.30;;;;;;4973731;28;20039;-76
2023/03/18 11:47:31;;;;;;;9.77;5.72;;;14.30;78.70;;;;;;4990463;28;20117;-78
2023/03/18 11:49:58;;;;;;;12.73;6.22;;;14.60;81.20;;;;;;4973821;28;20494;-73
2023/03/18 11:52:45;;;;;;;11.15;6.13;;;14.30;79.60;;;;;;4973959;28;20541;-76
2023/03/18 11:55:37;;;;;;;12.32;5.55;;;14.60;81.40;;;;;;4973589;28;20446;-76
2023/03/18 11:58:30;;;;;;;8.55;5.03;;;14.20;76.50;;;;;;4964753;28;20058;-78
2023/03/18 12:01:16;;;;;;;10.43;4.72;;;14.40;78.90;;;;;;4973755;28;20109;-75
2023/03/18 12:03:57;;;;;;;10.70;5.25;;;14.50;77.10;;;;;;4972955;28;20129;-77
2023/03/18 12:06:29;;;;;;;8.68;4.95;;;14.50;79.50;;;;;;4973376;28;20026;-74
2023/03/18 12:08:58;;;;;;;10.10;5.10;;;14.50;79.50;;;;;;4973358;28;20105;-75
2023/03/18 12:12:02;;;;;;;10.13;4.70;;;14.40;77.70;;;;;;4973329;28;20054;-73
2023/03/18 12:14:47;;;;;;;11.05;5.53;;;14.50;79.70;;;;;;4964174;28;20458;-75
2023/03/18 12:17:34;;;;;;;14.90;6.07;;;14.50;77.80;;;;;;4955620;28;20360;-74
2023/03/18 12:20:05;;;;;;;12.95;5.47;;;14.80;79.90;;;;;;4973188;28;20946;-76
2023/03/18 12:22:47;;;;;;;10.93;5.38;;;14.90;79.70;;;;;;4973251;28;20026;-76
2023/03/18 12:25:24;;;;;;;10.00;4.70;;;14.80;79.60;;;;;;4973330;28;20030;-73
2023/03/18 12:28:09;;;;;;;11.02;5.40;;;14.80;79.80;;;;;;4973118;28;20461;-73
2023/03/18 12:31:03;;;;;;;9.93;5.50;;;14.70;78.40;;;;;;4973080;28;20038;-72
2023/03/18 12:33:36;;;;;;;9.10;4.78;;;14.80;77.60;;;;;;4960167;28;20054;-75
2023/03/18 12:36:21;;;;;;;14.75;5.70;;;14.90;78.90;;;;;;4972904;28;20023;-75
2023/03/18 12:38:47;;;;;;;12.07;5.57;;;14.80;79.20;;;;;;4972945;28;20034;-75
2023/03/18 12:41:45;;;;;;;9.02;4.60;;;14.80;79.60;;;;;;4972705;28;20463;-73
2023/03/18 12:45:02;;;;;;;9.80;4.53;;;14.90;80.40;;;;;;4977526;28;20034;-77
2023/03/18 12:47:43;;;;;;;10.98;6.00;;;14.80;78.60;;;;;;4913637;29;20039;-75
2023/03/18 12:50:15;;;;;;;10.85;4.53;;;15.00;80.30;;;;;;4913614;29;20389;-74
2023/03/18 12:53:19;;;;;;;11.63;5.13;;;15.00;80.30;;;;;;4913247;29;20048;-76
2023/03/18 12:55:48;;;;;;;11.15;3.95;;;14.90;78.00;;;;;;4913099;29;20040;-77
2023/03/18 12:58:20;;;;;;;10.55;4.47;;;14.90;75.10;;;;;;4932414;29;20047;-74